sensor_id;sensor_type;location;lat;lon;timestamp;temperature;humidity
12853;DHT22;6495;51.808;7.478;2023-05-07T00:01:41;15.70;99.90
12853;DHT22;6495;51.808;7.478;2023-05-07T00:04:09;15.70;99.90
12853;DHT22;6495;51.808;7.478;2023-05-07T00:06:38;15.60;99.90
12853;DHT22;6495;51.808;7.478;2023-05-07T00:09:06;15.60;99.90
12853;DHT22;6495;51.808;7.478;2023-05-07T00:11:34;15.60;99.90
12853;DHT22;6495;51.808;7.478;2023-05-07T00:14:03;15.60;99.90
12853;DHT22;6495;51.808;7.478;2023-05-07T00:16:31;15.60;99.90
12853;DHT22;6495;51.808;7.478;2023-05-07T00:19:00;15.60;99.90
12853;DHT22;6495;51.808;7.478;2023-05-07T00:21:29;15.60;99.90
12853;DHT22;6495;51.808;7.478;2023-05-07T00:23:57;15.60;99.90
12853;DHT22;6495;51.808;7.478;2023-05-07T00:26:25;15.60;99.90
12853;DHT22;6495;51.808;7.478;2023-05-07T00:28:54;15.60;99.90
12853;DHT22;6495;51.808;7.478;2023-05-07T00:31:22;15.50;99.90
12853;DHT22;6495;51.808;7.478;2023-05-07T00:33:50;15.50;99.90
12853;DHT22;6495;51.808;7.478;2023-05-07T00:36:19;15.50;99.90
12853;DHT22;6495;51.808;7.478;2023-05-07T00:38:48;15.50;99.90
12853;DHT22;6495;51.808;7.478;2023-05-07T00:41:16;15.50;99.90
12853;DHT22;6495;51.808;7.478;2023-05-07T00:43:44;15.50;99.90
12853;DHT22;6495;51.808;7.478;2023-05-07T00:46:13;15.50;99.90
12853;DHT22;6495;51.808;7.478;2023-05-07T00:48:42;15.50;99.90
12853;DHT22;6495;51.808;7.478;2023-05-07T00:51:11;15.50;99.90
12853;DHT22;6495;51.808;7.478;2023-05-07T00:53:41;15.50;99.90
12853;DHT22;6495;51.808;7.478;2023-05-07T00:56:09;15.50;99.90
12853;DHT22;6495;51.808;7.478;2023-05-07T00:58:38;15.50;99.90
12853;DHT22;6495;51.808;7.478;2023-05-07T01:01:06;15.50;99.90
12853;DHT22;6495;51.808;7.478;2023-05-07T01:03:35;15.50;99.90
12853;DHT22;6495;51.808;7.478;2023-05-07T01:06:05;15.50;99.90
12853;DHT22;6495;51.808;7.478;2023-05-07T01:08:35;15.50;99.90
12853;DHT22;6495;51.808;7.478;2023-05-07T01:11:08;15.50;99.90
12853;DHT22;6495;51.808;7.478;2023-05-07T01:13:38;15.40;99.90
12853;DHT22;6495;51.808;7.478;2023-05-07T01:16:08;15.40;99.90
12853;DHT22;6495;51.808;7.478;2023-05-07T01:18:37;15.40;99.90
12853;DHT22;6495;51.808;7.478;2023-05-07T01:21:11;15.40;99.90
12853;DHT22;6495;51.808;7.478;2023-05-07T01:23:41;15.40;99.90
12853;DHT22;6495;51.808;7.478;2023-05-07T01:26:10;15.40;99.90
12853;DHT22;6495;51.808;7.478;2023-05-07T01:28:38;15.40;99.90
12853;DHT22;6495;51.808;7.478;2023-05-07T01:31:06;15.30;99.90
12853;DHT22;6495;51.808;7.478;2023-05-07T01:33:38;15.30;99.90
12853;DHT22;6495;51.808;7.478;2023-05-07T01:36:09;15.30;99.90
12853;DHT22;6495;51.808;7.478;2023-05-07T01:38:41;15.30;99.90
12853;DHT22;6495;51.808;7.478;2023-05-07T01:41:10;15.30;99.90
12853;DHT22;6495;51.808;7.478;2023-05-07T01:43:40;15.20;99.90
12853;DHT22;6495;51.808;7.478;2023-05-07T01:46:10;15.20;99.90
12853;DHT22;6495;51.808;7.478;2023-05-07T01:48:40;15.20;99.90
12853;DHT22;6495;51.808;7.478;2023-05-07T01:51:12;15.20;99.90
12853;DHT22;6495;51.808;7.478;2023-05-07T01:53:42;15.20;99.90
12853;DHT22;6495;51.808;7.478;2023-05-07T01:56:10;15.20;99.90
12853;DHT22;6495;51.808;7.478;2023-05-07T01:58:40;15.20;99.90
12853;DHT22;6495;51.808;7.478;2023-05-07T02:01:08;15.20;99.90
12853;DHT22;6495;51.808;7.478;2023-05-07T02:03:37;15.10;99.90
12853;DHT22;6495;51.808;7.478;2023-05-07T02:06:12;15.20;99.90
12853;DHT22;6495;51.808;7.478;2023-05-07T02:08:41;15.10;99.90
12853;DHT22;6495;51.808;7.478;2023-05-07T02:11:11;15.10;99.90
12853;DHT22;6495;51.808;7.478;2023-05-07T02:13:39;15.10;99.90
12853;DHT22;6495;51.808;7.478;2023-05-07T02:16:07;15.10;99.90
12853;DHT22;6495;51.808;7.478;2023-05-07T02:18:36;15.10;99.90
12853;DHT22;6495;51.808;7.478;2023-05-07T02:21:04;15.10;99.90
12853;DHT22;6495;51.808;7.478;2023-05-07T02:23:32;15.10;99.90
12853;DHT22;6495;51.808;7.478;2023-05-07T02:26:04;15.10;99.90
12853;DHT22;6495;51.808;7.478;2023-05-07T02:28:32;15.10;99.90
12853;DHT22;6495;51.808;7.478;2023-05-07T02:31:03;15.10;99.90
12853;DHT22;6495;51.808;7.478;2023-05-07T02:33:32;15.00;99.90
12853;DHT22;6495;51.808;7.478;2023-05-07T02:36:07;15.00;99.90
12853;DHT22;6495;51.808;7.478;2023-05-07T02:38:40;15.00;99.90
12853;DHT22;6495;51.808;7.478;2023-05-07T02:41:09;15.00;99.90
12853;DHT22;6495;51.808;7.478;2023-05-07T02:43:37;15.00;99.90
12853;DHT22;6495;51.808;7.478;2023-05-07T02:46:08;14.90;99.90
12853;DHT22;6495;51.808;7.478;2023-05-07T02:48:40;14.90;99.90
12853;DHT22;6495;51.808;7.478;2023-05-07T02:51:09;14.90;99.90
12853;DHT22;6495;51.808;7.478;2023-05-07T02:53:39;14.90;99.90
12853;DHT22;6495;51.808;7.478;2023-05-07T02:56:09;14.90;99.90
12853;DHT22;6495;51.808;7.478;2023-05-07T02:58:37;14.90;99.90
12853;DHT22;6495;51.808;7.478;2023-05-07T03:05:39;14.90;99.90
12853;DHT22;6495;51.808;7.478;2023-05-07T03:08:09;14.80;99.90
12853;DHT22;6495;51.808;7.478;2023-05-07T03:10:37;14.80;99.90
12853;DHT22;6495;51.808;7.478;2023-05-07T03:13:07;14.80;99.90
12853;DHT22;6495;51.808;7.478;2023-05-07T03:15:35;14.80;99.90
12853;DHT22;6495;51.808;7.478;2023-05-07T03:18:04;14.80;99.90
12853;DHT22;6495;51.808;7.478;2023-05-07T03:20:32;14.80;99.90
12853;DHT22;6495;51.808;7.478;2023-05-07T03:23:00;14.80;99.90
12853;DHT22;6495;51.808;7.478;2023-05-07T03:25:29;14.70;99.90
12853;DHT22;6495;51.808;7.478;2023-05-07T03:27:57;14.70;99.90
12853;DHT22;6495;51.808;7.478;2023-05-07T03:30:35;14.70;99.90
12853;DHT22;6495;51.808;7.478;2023-05-07T03:33:03;14.60;99.90
12853;DHT22;6495;51.808;7.478;2023-05-07T03:35:32;14.70;99.90
12853;DHT22;6495;51.808;7.478;2023-05-07T03:38:01;14.60;99.90
12853;DHT22;6495;51.808;7.478;2023-05-07T03:40:32;14.60;99.90
12853;DHT22;6495;51.808;7.478;2023-05-07T03:43:02;14.60;99.90
12853;DHT22;6495;51.808;7.478;2023-05-07T03:45:32;14.60;99.90
12853;DHT22;6495;51.808;7.478;2023-05-07T03:48:10;14.60;99.90
12853;DHT22;6495;51.808;7.478;2023-05-07T03:50:38;14.60;99.90
12853;DHT22;6495;51.808;7.478;2023-05-07T03:53:06;14.60;99.90
12853;DHT22;6495;51.808;7.478;2023-05-07T03:55:38;14.60;99.90
12853;DHT22;6495;51.808;7.478;2023-05-07T03:58:06;14.60;99.90
12853;DHT22;6495;51.808;7.478;2023-05-07T04:00:34;14.60;99.90
12853;DHT22;6495;51.808;7.478;2023-05-07T04:03:15;14.50;99.90
12853;DHT22;6495;51.808;7.478;2023-05-07T04:05:43;14.50;99.90
12853;DHT22;6495;51.808;7.478;2023-05-07T04:08:11;14.50;99.90
12853;DHT22;6495;51.808;7.478;2023-05-07T04:10:45;14.50;99.90
12853;DHT22;6495;51.808;7.478;2023-05-07T04:13:13;14.50;99.90
12853;DHT22;6495;51.808;7.478;2023-05-07T04:15:42;14.50;99.90
12853;DHT22;6495;51.808;7.478;2023-05-07T04:18:12;14.50;99.90
12853;DHT22;6495;51.808;7.478;2023-05-07T04:20:44;14.50;99.90
12853;DHT22;6495;51.808;7.478;2023-05-07T04:23:14;14.50;99.90
12853;DHT22;6495;51.808;7.478;2023-05-07T04:25:43;14.40;99.90
12853;DHT22;6495;51.808;7.478;2023-05-07T04:28:25;14.40;99.90
12853;DHT22;6495;51.808;7.478;2023-05-07T04:30:54;14.40;99.90
12853;DHT22;6495;51.808;7.478;2023-05-07T04:33:22;14.40;99.90
12853;DHT22;6495;51.808;7.478;2023-05-07T04:35:52;14.40;99.90
12853;DHT22;6495;51.808;7.478;2023-05-07T04:38:20;14.40;99.90
12853;DHT22;6495;51.808;7.478;2023-05-07T04:40:52;14.40;99.90
12853;DHT22;6495;51.808;7.478;2023-05-07T04:43:23;14.40;99.90
12853;DHT22;6495;51.808;7.478;2023-05-07T04:45:51;14.30;99.90
12853;DHT22;6495;51.808;7.478;2023-05-07T04:48:22;14.30;99.90
12853;DHT22;6495;51.808;7.478;2023-05-07T04:50:53;14.30;99.90
12853;DHT22;6495;51.808;7.478;2023-05-07T04:53:22;14.30;99.90
12853;DHT22;6495;51.808;7.478;2023-05-07T04:55:55;14.30;99.90
12853;DHT22;6495;51.808;7.478;2023-05-07T04:58:29;14.30;99.90
12853;DHT22;6495;51.808;7.478;2023-05-07T05:00:59;14.30;99.90
12853;DHT22;6495;51.808;7.478;2023-05-07T05:03:28;14.30;99.90
12853;DHT22;6495;51.808;7.478;2023-05-07T05:05:58;14.20;99.90
12853;DHT22;6495;51.808;7.478;2023-05-07T05:08:31;14.30;99.90
12853;DHT22;6495;51.808;7.478;2023-05-07T05:11:01;14.30;99.90
12853;DHT22;6495;51.808;7.478;2023-05-07T05:13:31;14.30;99.90
12853;DHT22;6495;51.808;7.478;2023-05-07T05:16:03;14.30;99.90
12853;DHT22;6495;51.808;7.478;2023-05-07T05:18:32;14.20;99.90
12853;DHT22;6495;51.808;7.478;2023-05-07T05:21:02;14.20;99.90
12853;DHT22;6495;51.808;7.478;2023-05-07T05:23:31;14.20;99.90
12853;DHT22;6495;51.808;7.478;2023-05-07T05:26:00;14.30;99.90
12853;DHT22;6495;51.808;7.478;2023-05-07T05:28:31;14.30;99.90
12853;DHT22;6495;51.808;7.478;2023-05-07T05:30:59;14.30;99.90
12853;DHT22;6495;51.808;7.478;2023-05-07T05:33:31;14.30;99.90
12853;DHT22;6495;51.808;7.478;2023-05-07T05:36:05;14.30;99.90
12853;DHT22;6495;51.808;7.478;2023-05-07T05:38:36;14.30;99.90
12853;DHT22;6495;51.808;7.478;2023-05-07T05:41:05;14.30;99.90
12853;DHT22;6495;51.808;7.478;2023-05-07T05:43:34;14.30;99.90
12853;DHT22;6495;51.808;7.478;2023-05-07T05:46:02;14.30;99.90
12853;DHT22;6495;51.808;7.478;2023-05-07T05:48:31;14.30;99.90
12853;DHT22;6495;51.808;7.478;2023-05-07T05:51:01;14.30;99.90
12853;DHT22;6495;51.808;7.478;2023-05-07T05:53:30;14.30;99.90
12853;DHT22;6495;51.808;7.478;2023-05-07T05:55:59;14.30;99.90
12853;DHT22;6495;51.808;7.478;2023-05-07T05:58:28;14.30;99.90
12853;DHT22;6495;51.808;7.478;2023-05-07T06:01:00;14.30;99.90
12853;DHT22;6495;51.808;7.478;2023-05-07T06:03:30;14.30;99.90
12853;DHT22;6495;51.808;7.478;2023-05-07T06:06:02;14.40;99.90
12853;DHT22;6495;51.808;7.478;2023-05-07T06:08:32;14.40;99.90
12853;DHT22;6495;51.808;7.478;2023-05-07T06:11:01;14.40;99.90
12853;DHT22;6495;51.808;7.478;2023-05-07T06:13:33;14.40;99.90
12853;DHT22;6495;51.808;7.478;2023-05-07T06:16:01;14.40;99.90
12853;DHT22;6495;51.808;7.478;2023-05-07T06:18:29;14.40;99.90
12853;DHT22;6495;51.808;7.478;2023-05-07T06:20:57;14.50;99.90
12853;DHT22;6495;51.808;7.478;2023-05-07T06:23:29;14.50;99.90
12853;DHT22;6495;51.808;7.478;2023-05-07T06:26:00;14.50;99.90
12853;DHT22;6495;51.808;7.478;2023-05-07T06:28:34;14.50;99.90
12853;DHT22;6495;51.808;7.478;2023-05-07T06:31:13;14.60;99.90
12853;DHT22;6495;51.808;7.478;2023-05-07T06:33:46;14.60;99.90
12853;DHT22;6495;51.808;7.478;2023-05-07T06:36:16;14.70;99.90
12853;DHT22;6495;51.808;7.478;2023-05-07T06:38:45;14.70;99.90
12853;DHT22;6495;51.808;7.478;2023-05-07T06:41:15;14.70;99.90
12853;DHT22;6495;51.808;7.478;2023-05-07T06:43:44;14.80;99.90
12853;DHT22;6495;51.808;7.478;2023-05-07T06:46:38;14.90;99.90
12853;DHT22;6495;51.808;7.478;2023-05-07T06:49:08;15.00;99.90
12853;DHT22;6495;51.808;7.478;2023-05-07T06:51:37;15.00;99.90
12853;DHT22;6495;51.808;7.478;2023-05-07T06:54:05;15.10;99.90
12853;DHT22;6495;51.808;7.478;2023-05-07T06:56:37;15.20;99.90
12853;DHT22;6495;51.808;7.478;2023-05-07T06:59:06;15.30;99.90
12853;DHT22;6495;51.808;7.478;2023-05-07T07:01:38;15.30;99.90
12853;DHT22;6495;51.808;7.478;2023-05-07T07:04:08;15.40;99.90
12853;DHT22;6495;51.808;7.478;2023-05-07T07:06:38;15.40;99.90
12853;DHT22;6495;51.808;7.478;2023-05-07T07:09:10;15.50;99.90
12853;DHT22;6495;51.808;7.478;2023-05-07T07:11:40;15.50;99.90
12853;DHT22;6495;51.808;7.478;2023-05-07T07:14:09;15.50;99.90
12853;DHT22;6495;51.808;7.478;2023-05-07T07:16:52;15.50;99.90
12853;DHT22;6495;51.808;7.478;2023-05-07T07:19:33;15.60;99.90
12853;DHT22;6495;51.808;7.478;2023-05-07T07:22:03;15.60;99.90
12853;DHT22;6495;51.808;7.478;2023-05-07T07:24:32;15.60;99.90
12853;DHT22;6495;51.808;7.478;2023-05-07T07:30:28;15.70;99.90
12853;DHT22;6495;51.808;7.478;2023-05-07T07:32:57;15.70;99.90
12853;DHT22;6495;51.808;7.478;2023-05-07T07:35:34;15.70;99.90
12853;DHT22;6495;51.808;7.478;2023-05-07T07:38:04;15.80;99.90
12853;DHT22;6495;51.808;7.478;2023-05-07T07:40:34;15.80;99.90
12853;DHT22;6495;51.808;7.478;2023-05-07T07:43:14;15.80;99.90
12853;DHT22;6495;51.808;7.478;2023-05-07T07:45:42;15.90;99.90
12853;DHT22;6495;51.808;7.478;2023-05-07T07:48:12;16.00;99.90
12853;DHT22;6495;51.808;7.478;2023-05-07T07:50:41;16.00;99.90
12853;DHT22;6495;51.808;7.478;2023-05-07T07:53:14;16.10;99.90
12853;DHT22;6495;51.808;7.478;2023-05-07T07:55:43;16.10;99.90
12853;DHT22;6495;51.808;7.478;2023-05-07T07:58:20;16.20;99.90
12853;DHT22;6495;51.808;7.478;2023-05-07T08:00:50;16.20;99.90
12853;DHT22;6495;51.808;7.478;2023-05-07T08:03:19;16.30;99.90
12853;DHT22;6495;51.808;7.478;2023-05-07T08:05:51;16.30;99.90
12853;DHT22;6495;51.808;7.478;2023-05-07T08:08:20;16.30;99.90
12853;DHT22;6495;51.808;7.478;2023-05-07T08:10:49;16.40;99.90
12853;DHT22;6495;51.808;7.478;2023-05-07T08:13:27;16.40;99.90
12853;DHT22;6495;51.808;7.478;2023-05-07T08:15:55;16.40;99.90
12853;DHT22;6495;51.808;7.478;2023-05-07T08:18:25;16.40;99.90
12853;DHT22;6495;51.808;7.478;2023-05-07T08:20:59;16.40;99.90
12853;DHT22;6495;51.808;7.478;2023-05-07T08:23:27;16.50;99.90
12853;DHT22;6495;51.808;7.478;2023-05-07T08:25:56;16.50;99.90
12853;DHT22;6495;51.808;7.478;2023-05-07T08:28:26;16.60;99.90
12853;DHT22;6495;51.808;7.478;2023-05-07T08:30:55;16.70;99.90
12853;DHT22;6495;51.808;7.478;2023-05-07T08:33:30;16.70;99.90
12853;DHT22;6495;51.808;7.478;2023-05-07T08:35:59;16.80;99.90
12853;DHT22;6495;51.808;7.478;2023-05-07T08:38:28;16.80;99.90
12853;DHT22;6495;51.808;7.478;2023-05-07T08:40:57;16.80;99.90
12853;DHT22;6495;51.808;7.478;2023-05-07T08:43:32;17.00;99.90
12853;DHT22;6495;51.808;7.478;2023-05-07T08:46:03;17.00;99.90
12853;DHT22;6495;51.808;7.478;2023-05-07T08:48:38;17.00;99.90
12853;DHT22;6495;51.808;7.478;2023-05-07T08:51:13;17.10;99.90
12853;DHT22;6495;51.808;7.478;2023-05-07T08:53:42;17.10;99.90
12853;DHT22;6495;51.808;7.478;2023-05-07T08:56:16;17.10;99.90
12853;DHT22;6495;51.808;7.478;2023-05-07T08:58:51;17.20;99.90
12853;DHT22;6495;51.808;7.478;2023-05-07T09:01:24;17.30;99.90
12853;DHT22;6495;51.808;7.478;2023-05-07T09:04:00;17.40;99.90
12853;DHT22;6495;51.808;7.478;2023-05-07T09:06:29;17.50;99.90
12853;DHT22;6495;51.808;7.478;2023-05-07T09:08:58;17.60;99.90
12853;DHT22;6495;51.808;7.478;2023-05-07T09:11:30;17.70;99.90
12853;DHT22;6495;51.808;7.478;2023-05-07T09:14:02;17.80;99.90
12853;DHT22;6495;51.808;7.478;2023-05-07T09:16:36;17.90;99.90
12853;DHT22;6495;51.808;7.478;2023-05-07T09:19:05;18.00;99.90
12853;DHT22;6495;51.808;7.478;2023-05-07T09:21:35;18.00;99.90
12853;DHT22;6495;51.808;7.478;2023-05-07T09:24:07;18.10;99.90
12853;DHT22;6495;51.808;7.478;2023-05-07T09:26:39;18.10;99.90
12853;DHT22;6495;51.808;7.478;2023-05-07T09:29:18;18.20;99.90
12853;DHT22;6495;51.808;7.478;2023-05-07T09:31:47;18.20;99.90
12853;DHT22;6495;51.808;7.478;2023-05-07T09:34:21;18.30;99.90
12853;DHT22;6495;51.808;7.478;2023-05-07T09:37:01;18.40;99.90
12853;DHT22;6495;51.808;7.478;2023-05-07T09:39:42;18.40;99.90
12853;DHT22;6495;51.808;7.478;2023-05-07T09:42:39;18.40;99.90
12853;DHT22;6495;51.808;7.478;2023-05-07T09:45:10;18.50;99.90
12853;DHT22;6495;51.808;7.478;2023-05-07T09:47:43;18.60;99.90
12853;DHT22;6495;51.808;7.478;2023-05-07T09:50:19;18.60;99.90
12853;DHT22;6495;51.808;7.478;2023-05-07T09:53:03;18.70;99.90
12853;DHT22;6495;51.808;7.478;2023-05-07T09:55:34;18.80;99.90
12853;DHT22;6495;51.808;7.478;2023-05-07T09:58:04;18.90;99.90
12853;DHT22;6495;51.808;7.478;2023-05-07T10:00:42;19.00;99.90
12853;DHT22;6495;51.808;7.478;2023-05-07T10:03:14;19.10;99.90
12853;DHT22;6495;51.808;7.478;2023-05-07T10:05:51;19.10;99.90
12853;DHT22;6495;51.808;7.478;2023-05-07T10:08:24;19.20;99.90
12853;DHT22;6495;51.808;7.478;2023-05-07T10:11:07;19.20;99.90
12853;DHT22;6495;51.808;7.478;2023-05-07T10:13:37;19.20;99.90
12853;DHT22;6495;51.808;7.478;2023-05-07T10:16:10;19.20;99.90
12853;DHT22;6495;51.808;7.478;2023-05-07T10:18:44;19.20;99.90
12853;DHT22;6495;51.808;7.478;2023-05-07T10:21:19;19.30;99.90
12853;DHT22;6495;51.808;7.478;2023-05-07T10:23:59;19.30;99.90
12853;DHT22;6495;51.808;7.478;2023-05-07T10:27:05;19.30;99.90
12853;DHT22;6495;51.808;7.478;2023-05-07T10:29:52;19.40;99.90
12853;DHT22;6495;51.808;7.478;2023-05-07T10:32:44;19.50;99.90
12853;DHT22;6495;51.808;7.478;2023-05-07T10:35:43;19.60;99.90
12853;DHT22;6495;51.808;7.478;2023-05-07T10:38:14;19.60;99.90
12853;DHT22;6495;51.808;7.478;2023-05-07T10:43:46;19.70;99.90
12853;DHT22;6495;51.808;7.478;2023-05-07T10:46:22;19.70;99.90
12853;DHT22;6495;51.808;7.478;2023-05-07T10:49:08;19.80;99.90
12853;DHT22;6495;51.808;7.478;2023-05-07T10:52:13;19.80;99.90
12853;DHT22;6495;51.808;7.478;2023-05-07T10:55:20;19.90;99.90
12853;DHT22;6495;51.808;7.478;2023-05-07T10:58:26;20.00;99.90
12853;DHT22;6495;51.808;7.478;2023-05-07T11:01:52;20.00;99.90
12853;DHT22;6495;51.808;7.478;2023-05-07T11:04:42;20.00;99.90
12853;DHT22;6495;51.808;7.478;2023-05-07T11:07:29;20.10;99.90
12853;DHT22;6495;51.808;7.478;2023-05-07T11:10:06;20.10;99.90
12853;DHT22;6495;51.808;7.478;2023-05-07T11:12:54;20.20;99.90
12853;DHT22;6495;51.808;7.478;2023-05-07T11:15:42;20.20;99.90
12853;DHT22;6495;51.808;7.478;2023-05-07T11:18:19;20.30;99.90
12853;DHT22;6495;51.808;7.478;2023-05-07T11:20:54;20.50;99.90
12853;DHT22;6495;51.808;7.478;2023-05-07T11:23:57;20.50;99.90
12853;DHT22;6495;51.808;7.478;2023-05-07T11:26:45;20.50;99.90
12853;DHT22;6495;51.808;7.478;2023-05-07T11:29:17;20.60;99.90
12853;DHT22;6495;51.808;7.478;2023-05-07T11:31:51;20.50;99.90
12853;DHT22;6495;51.808;7.478;2023-05-07T11:34:24;20.60;99.90
12853;DHT22;6495;51.808;7.478;2023-05-07T11:37:01;20.60;99.90
12853;DHT22;6495;51.808;7.478;2023-05-07T11:39:46;20.70;99.90
12853;DHT22;6495;51.808;7.478;2023-05-07T11:42:25;20.70;99.90
12853;DHT22;6495;51.808;7.478;2023-05-07T11:44:55;20.90;99.90
12853;DHT22;6495;51.808;7.478;2023-05-07T11:47:24;21.00;99.90
12853;DHT22;6495;51.808;7.478;2023-05-07T11:49:54;21.00;99.90
12853;DHT22;6495;51.808;7.478;2023-05-07T11:52:24;21.10;99.90
12853;DHT22;6495;51.808;7.478;2023-05-07T11:54:55;21.10;99.90
12853;DHT22;6495;51.808;7.478;2023-05-07T11:57:25;21.10;99.90
12853;DHT22;6495;51.808;7.478;2023-05-07T11:59:54;21.10;99.90
12853;DHT22;6495;51.808;7.478;2023-05-07T12:02:23;21.10;99.90
12853;DHT22;6495;51.808;7.478;2023-05-07T12:04:52;21.10;99.90
12853;DHT22;6495;51.808;7.478;2023-05-07T12:07:25;21.20;99.90
12853;DHT22;6495;51.808;7.478;2023-05-07T12:09:54;21.20;99.90
12853;DHT22;6495;51.808;7.478;2023-05-07T12:12:23;21.20;99.90
12853;DHT22;6495;51.808;7.478;2023-05-07T12:14:52;21.20;99.90
12853;DHT22;6495;51.808;7.478;2023-05-07T12:17:23;21.30;99.90
12853;DHT22;6495;51.808;7.478;2023-05-07T12:19:52;21.30;99.90
12853;DHT22;6495;51.808;7.478;2023-05-07T12:22:24;21.40;99.90
12853;DHT22;6495;51.808;7.478;2023-05-07T12:28:38;21.60;99.90
12853;DHT22;6495;51.808;7.478;2023-05-07T12:31:07;21.70;99.90
12853;DHT22;6495;51.808;7.478;2023-05-07T12:48:23;21.90;99.90
12853;DHT22;6495;51.808;7.478;2023-05-07T12:50:54;21.90;99.90
12853;DHT22;6495;51.808;7.478;2023-05-07T12:53:24;21.90;99.90
12853;DHT22;6495;51.808;7.478;2023-05-07T12:55:55;21.80;99.90
12853;DHT22;6495;51.808;7.478;2023-05-07T12:58:25;21.80;99.90
12853;DHT22;6495;51.808;7.478;2023-05-07T13:00:55;21.90;99.90
12853;DHT22;6495;51.808;7.478;2023-05-07T13:03:29;21.90;99.90
12853;DHT22;6495;51.808;7.478;2023-05-07T13:06:01;21.90;99.90
12853;DHT22;6495;51.808;7.478;2023-05-07T13:08:32;22.00;99.90
12853;DHT22;6495;51.808;7.478;2023-05-07T13:11:02;22.00;99.90
12853;DHT22;6495;51.808;7.478;2023-05-07T13:13:32;21.90;99.90
12853;DHT22;6495;51.808;7.478;2023-05-07T13:16:02;21.90;99.90
12853;DHT22;6495;51.808;7.478;2023-05-07T13:18:33;21.90;99.90
12853;DHT22;6495;51.808;7.478;2023-05-07T13:21:02;21.90;99.90
12853;DHT22;6495;51.808;7.478;2023-05-07T13:23:31;22.00;99.90
12853;DHT22;6495;51.808;7.478;2023-05-07T13:25:59;22.00;99.90
12853;DHT22;6495;51.808;7.478;2023-05-07T13:28:40;22.00;99.90
12853;DHT22;6495;51.808;7.478;2023-05-07T13:31:10;22.00;99.90
12853;DHT22;6495;51.808;7.478;2023-05-07T13:33:40;22.00;99.90
12853;DHT22;6495;51.808;7.478;2023-05-07T13:36:08;22.00;99.90
12853;DHT22;6495;51.808;7.478;2023-05-07T13:38:39;22.00;99.90
12853;DHT22;6495;51.808;7.478;2023-05-07T13:41:07;22.00;99.90
12853;DHT22;6495;51.808;7.478;2023-05-07T13:43:35;22.10;99.90
12853;DHT22;6495;51.808;7.478;2023-05-07T13:46:03;22.10;99.90
12853;DHT22;6495;51.808;7.478;2023-05-07T13:48:32;22.10;99.90
12853;DHT22;6495;51.808;7.478;2023-05-07T13:51:01;22.00;99.90
12853;DHT22;6495;51.808;7.478;2023-05-07T13:53:29;22.00;99.90
12853;DHT22;6495;51.808;7.478;2023-05-07T13:55:57;22.00;99.90
12853;DHT22;6495;51.808;7.478;2023-05-07T13:58:26;22.00;99.90
12853;DHT22;6495;51.808;7.478;2023-05-07T14:00:54;22.00;99.90
12853;DHT22;6495;51.808;7.478;2023-05-07T14:03:22;21.90;99.90
12853;DHT22;6495;51.808;7.478;2023-05-07T14:05:50;21.90;99.90
12853;DHT22;6495;51.808;7.478;2023-05-07T14:08:20;21.90;99.90
12853;DHT22;6495;51.808;7.478;2023-05-07T14:10:48;21.90;99.90
12853;DHT22;6495;51.808;7.478;2023-05-07T14:13:17;21.90;99.90
12853;DHT22;6495;51.808;7.478;2023-05-07T14:15:45;21.90;99.90
12853;DHT22;6495;51.808;7.478;2023-05-07T14:18:15;21.90;99.90
12853;DHT22;6495;51.808;7.478;2023-05-07T14:20:49;21.80;99.90
12853;DHT22;6495;51.808;7.478;2023-05-07T14:23:17;21.80;99.90
12853;DHT22;6495;51.808;7.478;2023-05-07T14:25:53;21.80;99.90
12853;DHT22;6495;51.808;7.478;2023-05-07T14:28:24;21.80;99.90
12853;DHT22;6495;51.808;7.478;2023-05-07T14:30:52;21.80;99.90
12853;DHT22;6495;51.808;7.478;2023-05-07T14:33:21;21.80;99.90
12853;DHT22;6495;51.808;7.478;2023-05-07T14:35:50;21.70;99.90
12853;DHT22;6495;51.808;7.478;2023-05-07T14:38:33;21.70;99.90
12853;DHT22;6495;51.808;7.478;2023-05-07T14:44:48;21.60;99.90
12853;DHT22;6495;51.808;7.478;2023-05-07T14:47:16;21.60;99.90
12853;DHT22;6495;51.808;7.478;2023-05-07T14:49:45;21.60;99.90
12853;DHT22;6495;51.808;7.478;2023-05-07T14:52:14;21.60;99.90
12853;DHT22;6495;51.808;7.478;2023-05-07T14:54:43;21.50;99.90
12853;DHT22;6495;51.808;7.478;2023-05-07T14:57:13;21.50;99.90
12853;DHT22;6495;51.808;7.478;2023-05-07T14:59:43;21.50;99.90
12853;DHT22;6495;51.808;7.478;2023-05-07T15:02:11;21.40;99.90
12853;DHT22;6495;51.808;7.478;2023-05-07T15:04:40;21.40;99.90
12853;DHT22;6495;51.808;7.478;2023-05-07T15:07:12;21.50;99.90
12853;DHT22;6495;51.808;7.478;2023-05-07T15:09:43;21.50;99.90
12853;DHT22;6495;51.808;7.478;2023-05-07T15:12:13;21.50;99.90
12853;DHT22;6495;51.808;7.478;2023-05-07T15:14:51;21.40;99.90
12853;DHT22;6495;51.808;7.478;2023-05-07T15:17:40;21.50;99.90
12853;DHT22;6495;51.808;7.478;2023-05-07T15:20:30;21.40;99.90
12853;DHT22;6495;51.808;7.478;2023-05-07T15:23:06;21.40;99.90
12853;DHT22;6495;51.808;7.478;2023-05-07T15:25:46;21.40;99.90
12853;DHT22;6495;51.808;7.478;2023-05-07T15:28:19;21.40;99.90
12853;DHT22;6495;51.808;7.478;2023-05-07T15:30:56;21.30;99.90
12853;DHT22;6495;51.808;7.478;2023-05-07T15:33:31;21.30;99.90
12853;DHT22;6495;51.808;7.478;2023-05-07T15:36:09;21.30;99.90
12853;DHT22;6495;51.808;7.478;2023-05-07T15:38:39;21.30;99.90
12853;DHT22;6495;51.808;7.478;2023-05-07T15:41:17;21.30;99.90
12853;DHT22;6495;51.808;7.478;2023-05-07T15:43:53;21.30;99.90
12853;DHT22;6495;51.808;7.478;2023-05-07T15:46:29;21.30;99.90
12853;DHT22;6495;51.808;7.478;2023-05-07T15:49:04;21.30;99.90
12853;DHT22;6495;51.808;7.478;2023-05-07T15:51:38;21.30;99.90
12853;DHT22;6495;51.808;7.478;2023-05-07T15:54:09;21.30;99.90
12853;DHT22;6495;51.808;7.478;2023-05-07T15:56:52;21.30;99.90
12853;DHT22;6495;51.808;7.478;2023-05-07T15:59:28;21.20;99.90
12853;DHT22;6495;51.808;7.478;2023-05-07T16:02:04;21.20;99.90
12853;DHT22;6495;51.808;7.478;2023-05-07T16:04:43;21.20;99.90
12853;DHT22;6495;51.808;7.478;2023-05-07T16:07:18;21.20;99.90
12853;DHT22;6495;51.808;7.478;2023-05-07T16:09:49;21.20;99.90
12853;DHT22;6495;51.808;7.478;2023-05-07T16:12:21;21.20;99.90
12853;DHT22;6495;51.808;7.478;2023-05-07T16:14:55;21.20;99.90
12853;DHT22;6495;51.808;7.478;2023-05-07T16:17:27;21.10;99.90
12853;DHT22;6495;51.808;7.478;2023-05-07T16:19:56;21.10;99.90
12853;DHT22;6495;51.808;7.478;2023-05-07T16:22:26;21.10;99.90
12853;DHT22;6495;51.808;7.478;2023-05-07T16:25:03;21.10;99.90
12853;DHT22;6495;51.808;7.478;2023-05-07T16:28:42;21.10;99.90
12853;DHT22;6495;51.808;7.478;2023-05-07T16:31:10;21.10;99.90
12853;DHT22;6495;51.808;7.478;2023-05-07T16:33:38;21.10;99.90
12853;DHT22;6495;51.808;7.478;2023-05-07T16:36:07;21.00;99.90
12853;DHT22;6495;51.808;7.478;2023-05-07T16:38:35;21.00;99.90
12853;DHT22;6495;51.808;7.478;2023-05-07T16:41:05;20.90;99.90
12853;DHT22;6495;51.808;7.478;2023-05-07T16:43:33;20.90;99.90
12853;DHT22;6495;51.808;7.478;2023-05-07T16:46:03;20.90;99.90
12853;DHT22;6495;51.808;7.478;2023-05-07T16:48:31;20.80;99.90
12853;DHT22;6495;51.808;7.478;2023-05-07T16:50:59;20.80;99.90